Aktualne dane pomiarowe

Uwaga, wersja testowa! Automatyczne pobieranie danych za pomocą narzędzi lub skryptów to umożliwiających jest zabronione.

Dane meteo z obszaru Polski uzyskane na podstawie depesz SYNOP pobieranych co godzinę z NWS. Najedź myszką na symbol przedstawiony w tabeli, aby uzyskać informacje co do jego znaczenia. Prosimy pamiętać, że to testowa wersja strony, która jeszcze nie jest ukończona. Stworzono również jest krótki FAQ dotyczący korzystania z tej podstrony Anomalie temperatury w chwili obecnej odniesione są do okresu referencyjnego 1951-2016. Okres ten będzie później zmieniony na 1981-2010. Kliknij ikonę aby pobrać plik CSV. Kliknij ikonę aby wygenerować mapę synoptyczną dla danego terminu.

Wybierz Datę:    

        

Katowice (12560)

Dane terminowe dla wybranej stacji. Kliknij datę, aby otrzymać dane z tego terminu dla wszystkich stacji.

TemperaturaZachmurzenieWiatrCiśnienieOpadyPogoda
 Data t td wb tx tn tg rh  Nt Nl Cl Cm Ch ws wd g1 g2 wx mslp ppp ch 24h 12h t ww ww w1 w2  
2019-07-04 23:00:00 10.9 7.2 8.6--- 7830.0wx-wx1wx---1018.6 984.9 -0.7---------
2019-07-04 22:00:00 11.2 6.5 8.4--- 7330.0wx-wx1wx--11018.9 985.2 -0.3---------
2019-07-04 21:00:00 11.7 6.2 8.4--- 6950.0wx-wx1wx--11019.0 985.4 -0.2---------
2019-07-04 20:00:00 14.5 5.8 9.6--- 5630.0wx-wx1wx--11018.9 985.6 -0.2---------
2019-07-04 19:00:00 18.4 4.2 10.9--- 3950.0wx-wx1wx--11018.3 985.5 -0.9---------
2019-07-04 18:00:00 21.4 2.6 11.7 23.3 16.3- 2950.0wx-wx1wx-1011018.1 985.6 -1.1- 0.012------
2019-07-04 17:00:00 22.5 2.6 12.2--- 2730.0wx-wx1wx--11018.2 985.8 -1.4---------
2019-07-04 16:00:00 22.5 2.6 12.2--- 2730.0wxwxwxwx2wx---1018.8 986.4 -1.4---------
2019-07-04 15:00:00 22.6 2.6 12.2--- 2730.0wxwxwxwx3wx-1031019.1 986.7 -1.7---------
2019-07-04 14:00:00 22.4 3.0 12.3--- 2830.0wxwxwx3wx--31019.7 987.2 -1.7---------
2019-07-04 13:00:00 21.8 3.0 12.0--- 2930.0wxwxwx4wx-1041020.3 987.8 -1.5---------
2019-07-04 12:00:00 21.2 3.4 11.9--- 3130.0wxwxwx3wx8--1021.0 988.4 -0.8---------
2019-07-04 11:00:00 20.1 2.9 11.2--- 3230.0wxwxwx4wx9941021.7 988.9 -0.4---------
2019-07-04 10:00:00 19.6 3.7 11.3--- 3530.0wxwxwx3wx-731022.1 989.3 -0.1---------
2019-07-04 09:00:00 19.0 3.2 10.8--- 3530.0wxwxwx3wx--31022.1 989.2 -0.1---------
2019-07-04 08:00:00 18.3 4.8 11.1--- 4130.0wxwxwx3wx--31022.3 989.3 0.3---------
2019-07-04 07:00:00 17.5 4.4 10.5--- 4230.0wxwxwx3wx---1022.5 989.4 0.5---------
2019-07-04 06:00:00 16.3 5.3 10.3 20.1 6.5 5 4830.0wx-1wx--11022.5 989.3 0.6- 0.012----- 13.2
2019-07-04 05:00:00 13.1 8.4 10.2--- 7330.0wx-1wx--11022.6 989.0 0.3---------
2019-07-04 04:00:00 8.3 6.6 7.2--- 8920.0wx-wx1wx--11023.1 988.9 0.4---------
2019-07-04 03:00:00 6.8 5.3 5.8--- 9015.0wx-wx2wx--21023.0 988.7 0.2---------
2019-07-04 02:00:00 6.5 4.3 5.1--- 8620.0wx-wx2wx--21023.1 988.7 0.2---------
2019-07-04 01:00:00 8.7 5.4 6.7--- 8020.0wx-1wx--11022.6 988.5 0.0---------
2019-07-04 00:00:00 10.0 5.4 7.3--- 7330.0wx-wx1wx--11022.4 988.5 0.3- 0.06------
2019-07-03 23:00:00 11.8 5.0 7.9--- 6350.0wxwxwxwx1wx--11022.2 988.5 0.9---------
2019-07-03 22:00:00 15.8 3.6 9.4--- 4450.0wxwxwxwx1wx--11021.7 988.5 1.3---------
2019-07-03 21:00:00 11.5 4.9 7.8--- 6450.0wxwxwxwx1wx--11022.0 988.2 1.5---------
2019-07-03 20:00:00 14.6 3.4 8.7--- 4750.0wxwxwx1wx--11021.0 987.6 0.7---------
2019-07-03 19:00:00 19.2 1.2 10.2--- 3050.0wxwxwxwx1wx--11020.0 987.2 0.3---------
2019-07-03 18:00:00 20.1 0.5 10.4 21.5 16.2- 2750.0wxwxwxwxwx2wx-921019.4 986.7 -0.4- 0.012------
2019-07-03 17:00:00 20.8 0.6 10.7--- 2650.0wxwxwxwx2wx-821019.5 986.9 -0.3---------
2019-07-03 16:00:00 21.1 0.8 10.9--- 2630.0wxwxwxwx3wx-831019.5 986.9 -0.5---------
2019-07-03 15:00:00 21.0 1.3 11.1--- 2730.0wxwxwxwx3wx8931019.7 987.1 -0.5---------
2019-07-03 14:00:00 21.0 2.7 11.6--- 3030.0wxwxwxwx2wx9921019.8 987.2 -0.5---------
2019-07-03 13:00:00 20.4 2.2 11.1--- 3030.0wxwxwxwx4wx9941020.1 987.4 -0.5---------
2019-07-03 12:00:00 20.6 2.9 11.4--- 3130.0wxwxwx4wx9941020.3 987.6 -0.3- 0.06------
2019-07-03 11:00:00 20.0 4.1 11.6--- 3530.0wxwxwx3wx-831020.4 987.7 -0.1---------
2019-07-03 10:00:00 18.9 4.3 11.2--- 3830.0wxwxwx3wx--31020.8 987.9 0.2---------
2019-07-03 09:00:00 18.4 3.8 10.7--- 3850.0wxwxwxwx3wx---1020.8 987.9 0.4---------
2019-07-03 08:00:00 18.2 3.6 10.6--- 3830.0wxwxwxwxwx3wx--31020.7 987.8 0.6---------
2019-07-03 07:00:00 17.3 3.9 10.2--- 4130.0wxwxwxwxwx3wx--31020.7 987.7 0.7---------
2019-07-03 06:00:00 16.5 5.4 10.4 23.1 11.3 9 4830.0wx-wx2wx--21020.6 987.5 0.8- 0.012----- 7.9
2019-07-03 05:00:00 15.9 6.3 10.5--- 5330.0wx-wxwx2wx--21020.4 987.2 0.7---------
2019-07-03 04:00:00 13.6 8.2 10.3--- 7030.0wx-wx2wx-1521020.5 987.0 0.8---------
2019-07-03 03:00:00 14.4 6.7 10.0--- 6030.0wx-wx1wx--11020.1 986.7 0.7---------
2019-07-03 02:00:00 14.6 6.9 10.1--- 6030.0wx-1wx--11019.8 986.5 1.0---------
2019-07-03 01:00:00 15.6 7.6 10.9--- 5930.0wx-wx1wx--11019.4 986.2 0.9---------
2019-07-03 00:00:00 13.2 8.9 10.5--- 7530.0wx-1wx--11019.5 986.0 1.0- 0.06------
1.2 ms

 

Print Friendly, PDF & Email